sensor_id;sensor_type;location;lat;lon;timestamp;temperature;humidity
70068;DHT22;57425;51.616;6.680;2023-07-13T00:01:04;23.30;54.70
70068;DHT22;57425;51.616;6.680;2023-07-13T00:03:29;23.40;54.70
70068;DHT22;57425;51.616;6.680;2023-07-13T00:06:01;23.30;54.60
70068;DHT22;57425;51.616;6.680;2023-07-13T00:08:30;23.30;54.60
70068;DHT22;57425;51.616;6.680;2023-07-13T00:10:58;23.30;54.50
70068;DHT22;57425;51.616;6.680;2023-07-13T00:13:23;23.30;54.50
70068;DHT22;57425;51.616;6.680;2023-07-13T00:15:49;23.20;54.30
70068;DHT22;57425;51.616;6.680;2023-07-13T00:18:15;23.20;54.40
70068;DHT22;57425;51.616;6.680;2023-07-13T00:20:40;23.20;55.00
70068;DHT22;57425;51.616;6.680;2023-07-13T00:23:07;23.20;54.60
70068;DHT22;57425;51.616;6.680;2023-07-13T00:25:32;23.10;54.40
70068;DHT22;57425;51.616;6.680;2023-07-13T00:27:58;23.10;54.30
70068;DHT22;57425;51.616;6.680;2023-07-13T00:30:24;23.10;54.20
70068;DHT22;57425;51.616;6.680;2023-07-13T00:32:49;23.10;54.10
70068;DHT22;57425;51.616;6.680;2023-07-13T00:35:15;23.00;54.00
70068;DHT22;57425;51.616;6.680;2023-07-13T00:37:42;23.00;54.00
70068;DHT22;57425;51.616;6.680;2023-07-13T00:40:10;23.00;54.10
70068;DHT22;57425;51.616;6.680;2023-07-13T00:42:36;23.00;54.20
70068;DHT22;57425;51.616;6.680;2023-07-13T00:47:36;23.00;54.20
70068;DHT22;57425;51.616;6.680;2023-07-13T00:50:03;22.90;54.10
70068;DHT22;57425;51.616;6.680;2023-07-13T00:52:29;22.90;54.10
70068;DHT22;57425;51.616;6.680;2023-07-13T00:54:56;22.90;54.80
70068;DHT22;57425;51.616;6.680;2023-07-13T00:57:22;22.90;54.20
70068;DHT22;57425;51.616;6.680;2023-07-13T00:59:52;22.90;54.10
70068;DHT22;57425;51.616;6.680;2023-07-13T01:02:19;22.90;54.10
70068;DHT22;57425;51.616;6.680;2023-07-13T01:04:47;22.80;54.00
70068;DHT22;57425;51.616;6.680;2023-07-13T01:07:13;22.80;54.10
70068;DHT22;57425;51.616;6.680;2023-07-13T01:09:39;22.90;54.10
70068;DHT22;57425;51.616;6.680;2023-07-13T01:12:05;22.80;54.00
70068;DHT22;57425;51.616;6.680;2023-07-13T01:14:30;22.80;54.00
70068;DHT22;57425;51.616;6.680;2023-07-13T01:16:56;22.80;54.00
70068;DHT22;57425;51.616;6.680;2023-07-13T01:19:42;22.80;54.00
70068;DHT22;57425;51.616;6.680;2023-07-13T01:22:11;22.90;69.00
70068;DHT22;57425;51.616;6.680;2023-07-13T01:24:39;22.70;54.00
70068;DHT22;57425;51.616;6.680;2023-07-13T01:27:08;22.70;54.70
70068;DHT22;57425;51.616;6.680;2023-07-13T01:29:35;22.70;54.20
70068;DHT22;57425;51.616;6.680;2023-07-13T01:32:09;22.70;54.20
70068;DHT22;57425;51.616;6.680;2023-07-13T01:34:36;22.60;54.20
70068;DHT22;57425;51.616;6.680;2023-07-13T01:37:04;22.60;54.10
70068;DHT22;57425;51.616;6.680;2023-07-13T01:39:30;22.70;63.50
70068;DHT22;57425;51.616;6.680;2023-07-13T01:41:56;22.60;54.20
70068;DHT22;57425;51.616;6.680;2023-07-13T01:44:21;22.60;54.30
70068;DHT22;57425;51.616;6.680;2023-07-13T01:46:47;22.50;54.30
70068;DHT22;57425;51.616;6.680;2023-07-13T01:49:12;22.50;54.20
70068;DHT22;57425;51.616;6.680;2023-07-13T01:51:38;22.50;54.30
70068;DHT22;57425;51.616;6.680;2023-07-13T01:54:03;22.50;54.30
70068;DHT22;57425;51.616;6.680;2023-07-13T01:56:29;22.50;54.30
70068;DHT22;57425;51.616;6.680;2023-07-13T01:58:55;22.50;54.30
70068;DHT22;57425;51.616;6.680;2023-07-13T02:01:20;22.50;54.20
70068;DHT22;57425;51.616;6.680;2023-07-13T02:03:46;22.40;54.20
70068;DHT22;57425;51.616;6.680;2023-07-13T02:06:12;22.50;54.20
70068;DHT22;57425;51.616;6.680;2023-07-13T02:08:40;22.50;54.30
70068;DHT22;57425;51.616;6.680;2023-07-13T02:11:05;22.50;54.50
70068;DHT22;57425;51.616;6.680;2023-07-13T02:13:31;22.50;54.80
70068;DHT22;57425;51.616;6.680;2023-07-13T02:15:57;22.40;54.20
70068;DHT22;57425;51.616;6.680;2023-07-13T02:18:22;22.40;54.80
70068;DHT22;57425;51.616;6.680;2023-07-13T02:20:48;22.30;54.30
70068;DHT22;57425;51.616;6.680;2023-07-13T02:23:14;22.40;54.40
70068;DHT22;57425;51.616;6.680;2023-07-13T02:25:39;22.40;54.40
70068;DHT22;57425;51.616;6.680;2023-07-13T02:28:05;22.30;54.30
70068;DHT22;57425;51.616;6.680;2023-07-13T02:30:30;22.30;54.40
70068;DHT22;57425;51.616;6.680;2023-07-13T02:32:57;22.30;54.40
70068;DHT22;57425;51.616;6.680;2023-07-13T02:35:23;22.30;54.40
70068;DHT22;57425;51.616;6.680;2023-07-13T02:37:49;22.30;54.40
70068;DHT22;57425;51.616;6.680;2023-07-13T02:40:14;22.30;54.50
70068;DHT22;57425;51.616;6.680;2023-07-13T02:42:40;22.30;54.40
70068;DHT22;57425;51.616;6.680;2023-07-13T02:45:07;22.20;54.40
70068;DHT22;57425;51.616;6.680;2023-07-13T02:47:33;22.20;54.50
70068;DHT22;57425;51.616;6.680;2023-07-13T02:49:59;22.20;54.60
70068;DHT22;57425;51.616;6.680;2023-07-13T02:52:25;22.20;54.60
70068;DHT22;57425;51.616;6.680;2023-07-13T02:54:51;22.20;55.20
70068;DHT22;57425;51.616;6.680;2023-07-13T02:57:16;22.20;54.70
70068;DHT22;57425;51.616;6.680;2023-07-13T02:59:42;22.20;54.70
70068;DHT22;57425;51.616;6.680;2023-07-13T03:02:08;22.20;54.70
70068;DHT22;57425;51.616;6.680;2023-07-13T03:04:36;22.10;54.70
70068;DHT22;57425;51.616;6.680;2023-07-13T03:07:02;22.10;54.70
70068;DHT22;57425;51.616;6.680;2023-07-13T03:09:28;22.10;54.90
70068;DHT22;57425;51.616;6.680;2023-07-13T03:11:55;22.10;55.00
70068;DHT22;57425;51.616;6.680;2023-07-13T03:14:22;22.10;54.90
70068;DHT22;57425;51.616;6.680;2023-07-13T03:16:47;22.10;55.10
70068;DHT22;57425;51.616;6.680;2023-07-13T03:19:13;22.00;55.10
70068;DHT22;57425;51.616;6.680;2023-07-13T03:21:39;22.10;55.20
70068;DHT22;57425;51.616;6.680;2023-07-13T03:24:05;22.00;55.20
70068;DHT22;57425;51.616;6.680;2023-07-13T03:26:31;22.00;55.20
70068;DHT22;57425;51.616;6.680;2023-07-13T03:28:57;22.00;55.30
70068;DHT22;57425;51.616;6.680;2023-07-13T03:31:26;22.00;55.40
70068;DHT22;57425;51.616;6.680;2023-07-13T03:33:52;22.00;55.40
70068;DHT22;57425;51.616;6.680;2023-07-13T03:36:21;21.90;55.40
70068;DHT22;57425;51.616;6.680;2023-07-13T03:38:49;21.90;55.40
70068;DHT22;57425;51.616;6.680;2023-07-13T03:41:16;21.90;55.60
70068;DHT22;57425;51.616;6.680;2023-07-13T03:43:42;21.90;55.60
70068;DHT22;57425;51.616;6.680;2023-07-13T03:46:08;21.90;55.60
70068;DHT22;57425;51.616;6.680;2023-07-13T03:48:34;21.90;56.20
70068;DHT22;57425;51.616;6.680;2023-07-13T03:51:00;21.80;55.60
70068;DHT22;57425;51.616;6.680;2023-07-13T03:53:26;21.80;55.60
70068;DHT22;57425;51.616;6.680;2023-07-13T03:55:51;21.80;55.60
70068;DHT22;57425;51.616;6.680;2023-07-13T03:58:44;21.80;55.60
70068;DHT22;57425;51.616;6.680;2023-07-13T04:01:12;21.80;55.60
70068;DHT22;57425;51.616;6.680;2023-07-13T04:03:38;21.80;55.60
70068;DHT22;57425;51.616;6.680;2023-07-13T04:06:05;21.80;56.30
70068;DHT22;57425;51.616;6.680;2023-07-13T04:10:59;21.70;55.30
70068;DHT22;57425;51.616;6.680;2023-07-13T04:13:25;21.70;55.80
70068;DHT22;57425;51.616;6.680;2023-07-13T04:15:52;21.70;56.00
70068;DHT22;57425;51.616;6.680;2023-07-13T04:18:17;21.70;56.10
70068;DHT22;57425;51.616;6.680;2023-07-13T04:20:43;21.70;56.30
70068;DHT22;57425;51.616;6.680;2023-07-13T04:23:10;21.70;56.20
70068;DHT22;57425;51.616;6.680;2023-07-13T04:25:35;21.70;56.40
70068;DHT22;57425;51.616;6.680;2023-07-13T04:28:02;21.70;56.40
70068;DHT22;57425;51.616;6.680;2023-07-13T04:30:28;21.70;56.40
70068;DHT22;57425;51.616;6.680;2023-07-13T04:32:54;21.70;57.00
70068;DHT22;57425;51.616;6.680;2023-07-13T04:35:20;21.60;56.30
70068;DHT22;57425;51.616;6.680;2023-07-13T04:37:47;21.60;56.90
70068;DHT22;57425;51.616;6.680;2023-07-13T04:40:14;21.60;56.30
70068;DHT22;57425;51.616;6.680;2023-07-13T04:42:39;21.60;56.30
70068;DHT22;57425;51.616;6.680;2023-07-13T04:45:06;21.60;56.40
70068;DHT22;57425;51.616;6.680;2023-07-13T04:47:32;21.60;56.40
70068;DHT22;57425;51.616;6.680;2023-07-13T04:49:58;21.60;56.50
70068;DHT22;57425;51.616;6.680;2023-07-13T04:52:24;21.60;56.50
70068;DHT22;57425;51.616;6.680;2023-07-13T04:54:50;21.60;56.60
70068;DHT22;57425;51.616;6.680;2023-07-13T04:57:15;21.60;56.60
70068;DHT22;57425;51.616;6.680;2023-07-13T04:59:41;21.50;56.50
70068;DHT22;57425;51.616;6.680;2023-07-13T05:02:07;21.50;56.60
70068;DHT22;57425;51.616;6.680;2023-07-13T05:04:32;21.50;56.70
70068;DHT22;57425;51.616;6.680;2023-07-13T05:06:59;21.50;56.70
70068;DHT22;57425;51.616;6.680;2023-07-13T05:09:25;21.50;56.70
70068;DHT22;57425;51.616;6.680;2023-07-13T05:11:50;21.50;56.70
70068;DHT22;57425;51.616;6.680;2023-07-13T05:14:17;21.50;56.90
70068;DHT22;57425;51.616;6.680;2023-07-13T05:16:43;21.50;57.00
70068;DHT22;57425;51.616;6.680;2023-07-13T05:19:09;21.50;57.00
70068;DHT22;57425;51.616;6.680;2023-07-13T05:21:34;21.40;56.90
70068;DHT22;57425;51.616;6.680;2023-07-13T05:24:00;21.40;57.00
70068;DHT22;57425;51.616;6.680;2023-07-13T05:26:26;21.40;57.10
70068;DHT22;57425;51.616;6.680;2023-07-13T05:28:52;21.40;57.10
70068;DHT22;57425;51.616;6.680;2023-07-13T05:31:17;21.40;57.20
70068;DHT22;57425;51.616;6.680;2023-07-13T05:33:44;21.40;57.30
70068;DHT22;57425;51.616;6.680;2023-07-13T05:36:10;21.40;57.40
70068;DHT22;57425;51.616;6.680;2023-07-13T05:38:35;21.40;58.00
70068;DHT22;57425;51.616;6.680;2023-07-13T05:41:01;21.40;57.50
70068;DHT22;57425;51.616;6.680;2023-07-13T05:43:27;21.40;57.60
70068;DHT22;57425;51.616;6.680;2023-07-13T05:45:54;21.40;57.70
70068;DHT22;57425;51.616;6.680;2023-07-13T05:48:20;21.40;57.80
70068;DHT22;57425;51.616;6.680;2023-07-13T05:50:45;21.40;57.90
70068;DHT22;57425;51.616;6.680;2023-07-13T05:53:12;21.40;58.00
70068;DHT22;57425;51.616;6.680;2023-07-13T05:55:42;21.40;58.00
70068;DHT22;57425;51.616;6.680;2023-07-13T05:58:08;21.40;58.00
70068;DHT22;57425;51.616;6.680;2023-07-13T06:00:35;21.40;58.10
70068;DHT22;57425;51.616;6.680;2023-07-13T06:03:02;21.40;58.20
70068;DHT22;57425;51.616;6.680;2023-07-13T06:05:27;21.30;58.30
70068;DHT22;57425;51.616;6.680;2023-07-13T06:07:54;21.30;58.30
70068;DHT22;57425;51.616;6.680;2023-07-13T06:10:20;21.30;58.40
70068;DHT22;57425;51.616;6.680;2023-07-13T06:12:46;21.30;58.40
70068;DHT22;57425;51.616;6.680;2023-07-13T06:15:12;21.30;58.40
70068;DHT22;57425;51.616;6.680;2023-07-13T06:17:37;21.40;58.50
70068;DHT22;57425;51.616;6.680;2023-07-13T06:20:03;21.30;58.50
70068;DHT22;57425;51.616;6.680;2023-07-13T06:22:29;21.30;58.50
70068;DHT22;57425;51.616;6.680;2023-07-13T06:24:55;21.30;58.60
70068;DHT22;57425;51.616;6.680;2023-07-13T06:27:20;21.40;58.70
70068;DHT22;57425;51.616;6.680;2023-07-13T06:29:46;21.30;58.70
70068;DHT22;57425;51.616;6.680;2023-07-13T06:32:12;21.30;58.70
70068;DHT22;57425;51.616;6.680;2023-07-13T06:34:37;21.30;58.80
70068;DHT22;57425;51.616;6.680;2023-07-13T06:37:03;21.30;59.40
70068;DHT22;57425;51.616;6.680;2023-07-13T06:39:29;21.30;58.80
70068;DHT22;57425;51.616;6.680;2023-07-13T06:41:54;21.40;58.90
70068;DHT22;57425;51.616;6.680;2023-07-13T06:44:20;21.30;59.00
70068;DHT22;57425;51.616;6.680;2023-07-13T06:46:46;21.30;59.00
70068;DHT22;57425;51.616;6.680;2023-07-13T06:49:12;21.30;59.00
70068;DHT22;57425;51.616;6.680;2023-07-13T06:51:38;21.30;59.00
70068;DHT22;57425;51.616;6.680;2023-07-13T06:54:04;21.30;59.20
70068;DHT22;57425;51.616;6.680;2023-07-13T06:56:29;21.30;59.20
70068;DHT22;57425;51.616;6.680;2023-07-13T06:58:55;21.30;59.20
70068;DHT22;57425;51.616;6.680;2023-07-13T07:01:21;21.30;59.90
70068;DHT22;57425;51.616;6.680;2023-07-13T07:03:46;21.30;59.40
70068;DHT22;57425;51.616;6.680;2023-07-13T07:06:21;21.30;59.40
70068;DHT22;57425;51.616;6.680;2023-07-13T07:08:50;21.40;59.70
70068;DHT22;57425;51.616;6.680;2023-07-13T07:11:24;21.30;59.60
70068;DHT22;57425;51.616;6.680;2023-07-13T07:13:51;21.30;59.80
70068;DHT22;57425;51.616;6.680;2023-07-13T07:16:17;21.30;60.30
70068;DHT22;57425;51.616;6.680;2023-07-13T07:18:43;21.30;59.70
70068;DHT22;57425;51.616;6.680;2023-07-13T07:21:09;21.30;59.80
70068;DHT22;57425;51.616;6.680;2023-07-13T07:23:35;21.30;59.80
70068;DHT22;57425;51.616;6.680;2023-07-13T07:26:02;21.30;59.80
70068;DHT22;57425;51.616;6.680;2023-07-13T07:28:28;21.30;59.90
70068;DHT22;57425;51.616;6.680;2023-07-13T07:30:56;21.30;59.90
70068;DHT22;57425;51.616;6.680;2023-07-13T07:33:23;21.30;59.90
70068;DHT22;57425;51.616;6.680;2023-07-13T07:35:49;21.30;60.00
70068;DHT22;57425;51.616;6.680;2023-07-13T07:38:14;21.30;60.00
70068;DHT22;57425;51.616;6.680;2023-07-13T07:40:41;21.30;60.00
70068;DHT22;57425;51.616;6.680;2023-07-13T07:43:08;21.30;60.00
70068;DHT22;57425;51.616;6.680;2023-07-13T07:45:34;21.30;60.10
70068;DHT22;57425;51.616;6.680;2023-07-13T07:47:59;21.30;60.10
70068;DHT22;57425;51.616;6.680;2023-07-13T07:50:28;21.30;60.10
70068;DHT22;57425;51.616;6.680;2023-07-13T07:52:54;21.40;60.10
70068;DHT22;57425;51.616;6.680;2023-07-13T07:55:22;21.30;60.00
70068;DHT22;57425;51.616;6.680;2023-07-13T07:57:48;21.40;60.20
70068;DHT22;57425;51.616;6.680;2023-07-13T08:00:14;21.40;60.10
70068;DHT22;57425;51.616;6.680;2023-07-13T08:02:40;21.40;60.10
70068;DHT22;57425;51.616;6.680;2023-07-13T08:05:08;21.40;60.70
70068;DHT22;57425;51.616;6.680;2023-07-13T08:07:34;21.40;60.10
70068;DHT22;57425;51.616;6.680;2023-07-13T08:09:59;21.50;60.10
70068;DHT22;57425;51.616;6.680;2023-07-13T08:12:25;21.50;60.10
70068;DHT22;57425;51.616;6.680;2023-07-13T08:14:51;21.50;60.00
70068;DHT22;57425;51.616;6.680;2023-07-13T08:17:23;21.50;60.60
70068;DHT22;57425;51.616;6.680;2023-07-13T08:19:50;21.60;60.00
70068;DHT22;57425;51.616;6.680;2023-07-13T08:22:15;21.60;60.00
70068;DHT22;57425;51.616;6.680;2023-07-13T08:24:41;21.60;60.10
70068;DHT22;57425;51.616;6.680;2023-07-13T08:27:11;21.60;60.00
70068;DHT22;57425;51.616;6.680;2023-07-13T08:29:37;21.70;60.00
70068;DHT22;57425;51.616;6.680;2023-07-13T08:32:06;21.70;60.10
70068;DHT22;57425;51.616;6.680;2023-07-13T08:34:35;21.70;60.10
70068;DHT22;57425;51.616;6.680;2023-07-13T08:37:01;21.70;60.00
70068;DHT22;57425;51.616;6.680;2023-07-13T08:39:26;21.80;60.10
70068;DHT22;57425;51.616;6.680;2023-07-13T08:41:58;21.70;60.10
70068;DHT22;57425;51.616;6.680;2023-07-13T08:44:36;21.80;60.20
70068;DHT22;57425;51.616;6.680;2023-07-13T08:47:06;21.80;60.30
70068;DHT22;57425;51.616;6.680;2023-07-13T08:49:34;21.80;60.20
70068;DHT22;57425;51.616;6.680;2023-07-13T08:52:08;21.80;60.20
70068;DHT22;57425;51.616;6.680;2023-07-13T08:54:38;21.80;60.20
70068;DHT22;57425;51.616;6.680;2023-07-13T08:57:19;21.90;60.20
70068;DHT22;57425;51.616;6.680;2023-07-13T08:59:45;21.90;60.20
70068;DHT22;57425;51.616;6.680;2023-07-13T09:02:26;21.90;60.80
70068;DHT22;57425;51.616;6.680;2023-07-13T09:04:58;21.90;60.90
70068;DHT22;57425;51.616;6.680;2023-07-13T09:17:59;22.00;60.30
70068;DHT22;57425;51.616;6.680;2023-07-13T09:20:36;22.00;60.30
70068;DHT22;57425;51.616;6.680;2023-07-13T09:23:06;22.00;60.40
70068;DHT22;57425;51.616;6.680;2023-07-13T09:25:35;22.10;60.60
70068;DHT22;57425;51.616;6.680;2023-07-13T09:28:23;22.00;60.50
70068;DHT22;57425;51.616;6.680;2023-07-13T09:31:01;22.10;60.50
70068;DHT22;57425;51.616;6.680;2023-07-13T09:33:29;22.10;60.40
70068;DHT22;57425;51.616;6.680;2023-07-13T09:35:59;22.10;60.30
70068;DHT22;57425;51.616;6.680;2023-07-13T09:38:27;22.10;60.40
70068;DHT22;57425;51.616;6.680;2023-07-13T09:46:32;22.30;60.50
70068;DHT22;57425;51.616;6.680;2023-07-13T09:48:57;22.20;60.50
70068;DHT22;57425;51.616;6.680;2023-07-13T09:51:23;22.30;60.60
70068;DHT22;57425;51.616;6.680;2023-07-13T09:53:49;22.30;60.40
70068;DHT22;57425;51.616;6.680;2023-07-13T09:56:23;22.30;60.50
70068;DHT22;57425;51.616;6.680;2023-07-13T09:58:50;22.30;60.40
70068;DHT22;57425;51.616;6.680;2023-07-13T10:01:16;22.30;60.30
70068;DHT22;57425;51.616;6.680;2023-07-13T10:03:55;22.40;60.50
70068;DHT22;57425;51.616;6.680;2023-07-13T10:06:22;22.40;60.50
70068;DHT22;57425;51.616;6.680;2023-07-13T10:08:49;22.40;60.60
70068;DHT22;57425;51.616;6.680;2023-07-13T10:11:27;22.40;60.60
70068;DHT22;57425;51.616;6.680;2023-07-13T10:14:01;22.50;60.50
70068;DHT22;57425;51.616;6.680;2023-07-13T10:16:33;22.40;60.40
70068;DHT22;57425;51.616;6.680;2023-07-13T10:19:10;22.50;60.50
70068;DHT22;57425;51.616;6.680;2023-07-13T10:21:43;22.50;60.40
70068;DHT22;57425;51.616;6.680;2023-07-13T10:24:24;22.60;60.40
70068;DHT22;57425;51.616;6.680;2023-07-13T10:27:18;22.60;60.50
70068;DHT22;57425;51.616;6.680;2023-07-13T10:29:53;22.60;60.20
70068;DHT22;57425;51.616;6.680;2023-07-13T10:32:22;22.60;60.10
70068;DHT22;57425;51.616;6.680;2023-07-13T10:34:50;22.60;60.00
70068;DHT22;57425;51.616;6.680;2023-07-13T10:37:29;22.60;60.00
70068;DHT22;57425;51.616;6.680;2023-07-13T10:39:57;22.70;59.80
70068;DHT22;57425;51.616;6.680;2023-07-13T10:42:32;22.70;59.90
70068;DHT22;57425;51.616;6.680;2023-07-13T10:45:00;22.70;59.70
70068;DHT22;57425;51.616;6.680;2023-07-13T10:47:26;22.80;59.70
70068;DHT22;57425;51.616;6.680;2023-07-13T10:49:57;22.80;59.80
70068;DHT22;57425;51.616;6.680;2023-07-13T10:55:38;22.80;59.50
70068;DHT22;57425;51.616;6.680;2023-07-13T11:03:47;22.90;59.30
70068;DHT22;57425;51.616;6.680;2023-07-13T11:06:34;22.90;59.40
70068;DHT22;57425;51.616;6.680;2023-07-13T11:09:37;22.90;59.60
70068;DHT22;57425;51.616;6.680;2023-07-13T11:15:28;23.00;59.10
70068;DHT22;57425;51.616;6.680;2023-07-13T11:17:55;23.00;58.80
70068;DHT22;57425;51.616;6.680;2023-07-13T11:20:35;23.00;59.40
70068;DHT22;57425;51.616;6.680;2023-07-13T11:23:30;23.00;58.60
70068;DHT22;57425;51.616;6.680;2023-07-13T11:25:57;23.10;58.50
70068;DHT22;57425;51.616;6.680;2023-07-13T11:28:25;23.10;58.40
70068;DHT22;57425;51.616;6.680;2023-07-13T11:36:18;23.10;57.90
70068;DHT22;57425;51.616;6.680;2023-07-13T11:41:45;23.20;57.80
70068;DHT22;57425;51.616;6.680;2023-07-13T11:44:20;23.20;57.70
70068;DHT22;57425;51.616;6.680;2023-07-13T11:46:54;23.20;57.50
70068;DHT22;57425;51.616;6.680;2023-07-13T11:49:23;23.30;57.20
70068;DHT22;57425;51.616;6.680;2023-07-13T11:51:48;23.30;57.30
70068;DHT22;57425;51.616;6.680;2023-07-13T11:54:30;23.30;57.20
70068;DHT22;57425;51.616;6.680;2023-07-13T11:57:02;23.40;57.40
70068;DHT22;57425;51.616;6.680;2023-07-13T11:59:32;23.40;57.00
70068;DHT22;57425;51.616;6.680;2023-07-13T12:01:59;23.40;56.80
70068;DHT22;57425;51.616;6.680;2023-07-13T12:04:27;23.40;56.70
70068;DHT22;57425;51.616;6.680;2023-07-13T12:07:14;23.50;56.60
70068;DHT22;57425;51.616;6.680;2023-07-13T12:09:40;23.50;56.60
70068;DHT22;57425;51.616;6.680;2023-07-13T12:12:19;23.50;56.50
70068;DHT22;57425;51.616;6.680;2023-07-13T12:14:45;23.60;56.20
70068;DHT22;57425;51.616;6.680;2023-07-13T12:17:23;23.60;56.30
70068;DHT22;57425;51.616;6.680;2023-07-13T12:19:50;23.70;56.10
70068;DHT22;57425;51.616;6.680;2023-07-13T12:22:19;23.70;55.90
70068;DHT22;57425;51.616;6.680;2023-07-13T12:24:46;23.70;55.60
70068;DHT22;57425;51.616;6.680;2023-07-13T12:27:27;23.70;56.10
70068;DHT22;57425;51.616;6.680;2023-07-13T12:29:58;23.80;55.90
70068;DHT22;57425;51.616;6.680;2023-07-13T12:32:25;23.80;55.90
70068;DHT22;57425;51.616;6.680;2023-07-13T12:34:56;23.80;56.20
70068;DHT22;57425;51.616;6.680;2023-07-13T12:37:23;23.70;55.30
70068;DHT22;57425;51.616;6.680;2023-07-13T12:39:49;23.80;55.80
70068;DHT22;57425;51.616;6.680;2023-07-13T12:45:00;23.70;57.50
70068;DHT22;57425;51.616;6.680;2023-07-13T12:47:27;23.70;58.10
70068;DHT22;57425;51.616;6.680;2023-07-13T12:49:58;23.60;58.50
70068;DHT22;57425;51.616;6.680;2023-07-13T12:52:34;23.50;59.50
70068;DHT22;57425;51.616;6.680;2023-07-13T12:55:11;23.50;59.40
70068;DHT22;57425;51.616;6.680;2023-07-13T12:57:50;23.40;59.70
70068;DHT22;57425;51.616;6.680;2023-07-13T13:02:49;23.40;60.50
70068;DHT22;57425;51.616;6.680;2023-07-13T13:05:16;23.40;60.80
70068;DHT22;57425;51.616;6.680;2023-07-13T13:07:41;23.30;61.10
70068;DHT22;57425;51.616;6.680;2023-07-13T13:10:13;23.30;61.50
70068;DHT22;57425;51.616;6.680;2023-07-13T13:12:40;23.40;62.30
70068;DHT22;57425;51.616;6.680;2023-07-13T13:15:09;23.30;62.30
70068;DHT22;57425;51.616;6.680;2023-07-13T13:17:35;23.40;62.90
70068;DHT22;57425;51.616;6.680;2023-07-13T13:20:01;23.40;63.10
70068;DHT22;57425;51.616;6.680;2023-07-13T13:22:27;23.40;63.30
70068;DHT22;57425;51.616;6.680;2023-07-13T13:24:52;23.40;63.50
70068;DHT22;57425;51.616;6.680;2023-07-13T13:27:19;23.40;63.50
70068;DHT22;57425;51.616;6.680;2023-07-13T13:29:46;23.40;63.60
70068;DHT22;57425;51.616;6.680;2023-07-13T13:32:14;23.40;63.60
70068;DHT22;57425;51.616;6.680;2023-07-13T13:34:40;23.40;63.70
70068;DHT22;57425;51.616;6.680;2023-07-13T13:37:20;23.40;63.70
70068;DHT22;57425;51.616;6.680;2023-07-13T13:39:47;23.40;64.00
70068;DHT22;57425;51.616;6.680;2023-07-13T13:42:13;23.30;64.00
70068;DHT22;57425;51.616;6.680;2023-07-13T13:44:38;23.40;64.30
70068;DHT22;57425;51.616;6.680;2023-07-13T13:47:33;23.40;64.40
70068;DHT22;57425;51.616;6.680;2023-07-13T13:49:58;23.40;64.70
70068;DHT22;57425;51.616;6.680;2023-07-13T13:52:26;23.40;64.60
70068;DHT22;57425;51.616;6.680;2023-07-13T13:54:52;23.40;64.70
70068;DHT22;57425;51.616;6.680;2023-07-13T13:57:23;23.40;64.80
70068;DHT22;57425;51.616;6.680;2023-07-13T13:59:49;23.40;65.00
70068;DHT22;57425;51.616;6.680;2023-07-13T14:02:27;23.40;65.00
70068;DHT22;57425;51.616;6.680;2023-07-13T14:04:59;23.40;65.20
70068;DHT22;57425;51.616;6.680;2023-07-13T14:07:26;23.40;65.20
70068;DHT22;57425;51.616;6.680;2023-07-13T14:09:56;23.40;65.20
70068;DHT22;57425;51.616;6.680;2023-07-13T14:12:22;23.40;65.40
70068;DHT22;57425;51.616;6.680;2023-07-13T14:14:50;23.40;65.20
70068;DHT22;57425;51.616;6.680;2023-07-13T14:17:24;23.40;65.20
70068;DHT22;57425;51.616;6.680;2023-07-13T14:19:51;23.40;65.50
70068;DHT22;57425;51.616;6.680;2023-07-13T14:22:20;23.40;65.40
70068;DHT22;57425;51.616;6.680;2023-07-13T14:24:46;23.40;65.70
70068;DHT22;57425;51.616;6.680;2023-07-13T14:27:12;23.40;65.70
70068;DHT22;57425;51.616;6.680;2023-07-13T14:29:38;23.40;66.00
70068;DHT22;57425;51.616;6.680;2023-07-13T14:32:04;23.50;66.40
70068;DHT22;57425;51.616;6.680;2023-07-13T14:34:32;23.50;66.50
70068;DHT22;57425;51.616;6.680;2023-07-13T14:36:59;23.50;66.50
70068;DHT22;57425;51.616;6.680;2023-07-13T14:39:25;23.50;66.80
70068;DHT22;57425;51.616;6.680;2023-07-13T14:41:52;23.50;66.90
70068;DHT22;57425;51.616;6.680;2023-07-13T14:44:24;23.50;66.60
70068;DHT22;57425;51.616;6.680;2023-07-13T14:46:51;23.50;66.60
70068;DHT22;57425;51.616;6.680;2023-07-13T14:49:36;23.50;66.60
70068;DHT22;57425;51.616;6.680;2023-07-13T14:52:24;23.60;66.30
70068;DHT22;57425;51.616;6.680;2023-07-13T14:54:51;23.50;66.30
70068;DHT22;57425;51.616;6.680;2023-07-13T14:57:18;23.50;66.30
70068;DHT22;57425;51.616;6.680;2023-07-13T14:59:44;23.50;66.40
70068;DHT22;57425;51.616;6.680;2023-07-13T15:02:23;23.50;66.30
70068;DHT22;57425;51.616;6.680;2023-07-13T15:04:51;23.50;66.00
70068;DHT22;57425;51.616;6.680;2023-07-13T15:07:16;23.50;66.50
70068;DHT22;57425;51.616;6.680;2023-07-13T15:09:44;23.50;66.00
70068;DHT22;57425;51.616;6.680;2023-07-13T15:12:10;23.50;66.00
70068;DHT22;57425;51.616;6.680;2023-07-13T15:14:36;23.50;65.90
70068;DHT22;57425;51.616;6.680;2023-07-13T15:17:01;23.50;66.40
70068;DHT22;57425;51.616;6.680;2023-07-13T15:19:27;23.50;65.80
70068;DHT22;57425;51.616;6.680;2023-07-13T15:21:55;23.50;65.90
70068;DHT22;57425;51.616;6.680;2023-07-13T15:24:23;23.50;66.00
70068;DHT22;57425;51.616;6.680;2023-07-13T15:26:48;23.50;66.10
70068;DHT22;57425;51.616;6.680;2023-07-13T15:29:15;23.50;66.10
70068;DHT22;57425;51.616;6.680;2023-07-13T15:31:41;23.50;66.10
70068;DHT22;57425;51.616;6.680;2023-07-13T15:34:13;23.50;66.50
70068;DHT22;57425;51.616;6.680;2023-07-13T15:36:40;23.50;65.90
70068;DHT22;57425;51.616;6.680;2023-07-13T15:39:06;23.50;65.80
70068;DHT22;57425;51.616;6.680;2023-07-13T15:41:33;23.50;65.80
70068;DHT22;57425;51.616;6.680;2023-07-13T15:44:00;23.50;65.90
70068;DHT22;57425;51.616;6.680;2023-07-13T15:46:30;23.50;65.90
70068;DHT22;57425;51.616;6.680;2023-07-13T15:48:57;23.50;65.80
70068;DHT22;57425;51.616;6.680;2023-07-13T15:51:28;23.50;65.60
70068;DHT22;57425;51.616;6.680;2023-07-13T15:54:01;23.50;65.30
70068;DHT22;57425;51.616;6.680;2023-07-13T15:56:34;23.50;65.00
70068;DHT22;57425;51.616;6.680;2023-07-13T15:59:00;23.50;65.00
70068;DHT22;57425;51.616;6.680;2023-07-13T16:01:26;23.50;65.10
70068;DHT22;57425;51.616;6.680;2023-07-13T16:03:52;23.50;65.10
70068;DHT22;57425;51.616;6.680;2023-07-13T16:06:45;23.50;65.00
70068;DHT22;57425;51.616;6.680;2023-07-13T16:09:22;23.50;64.90
70068;DHT22;57425;51.616;6.680;2023-07-13T16:11:49;23.50;64.90
70068;DHT22;57425;51.616;6.680;2023-07-13T16:14:15;23.50;64.70
70068;DHT22;57425;51.616;6.680;2023-07-13T16:16:42;23.50;64.70
70068;DHT22;57425;51.616;6.680;2023-07-13T16:19:09;23.50;64.70
70068;DHT22;57425;51.616;6.680;2023-07-13T16:21:44;23.50;64.60
70068;DHT22;57425;51.616;6.680;2023-07-13T16:24:18;23.50;64.60